Terminal Aerodrome Forecast
Issued by NWS

Home | Current Version | Previous Version | Text Only | Print | Product List | Glossary On
Versions: 1 2 3 4 5 6 7 8 9 10 11 12 13 14 15 16 17 18
000
FTUS46 KSGX 230814 AAA
TAFCRQ
TAF AMD
KCRQ 230814Z 2308/2406 16004KT 6SM BR BKN005
      TEMPO 2310/2314 1SM BR BKN003
     FM231400 18004KT 5SM BR FEW005 SCT200
     FM231600 19005KT P6SM SCT200
     FM231900 23008KT P6SM SKC
     FM240200 19004KT P6SM SCT008=

USA.gov is the U.S. government's official web portal to all federal, state and local government web resources and services.